KMPO

Details ICAO KMPO
Name Pocono Mountains Muni
Region United States
Timezone America/New_York (UTC-5.0)
Plans Departing 7
Arriving 7
Stats Elevation 1,916 ft / 584 m (AMSL)
Location 41.137462° -75.378895°
Runways 2
Magnetic Variation 12.276° W
Sunrise 2017-12-15 12:21:19 UTC / 2017-12-15 07:21:19 Local
Sunset 2017-12-15 21:35:00 UTC / 2017-12-15 16:35:00 Local
Advertisement - Login to hide

Runways

ID Width Length Bearing (true) Bearing (mag) Surface Threshold Offset Overrun Length
05 98 ft / 30 m 4,000 ft / 1,219 m 36.63° 48.91° Asphalt 0 ft / 0 m 0 ft / 0 m
13 59 ft / 18 m 3,941 ft / 1,201 m 115.26° 127.54° Asphalt 0 ft / 0 m 0 ft / 0 m
23 98 ft / 30 m 4,000 ft / 1,219 m 216.63° 228.91° Asphalt 0 ft / 0 m 0 ft / 0 m
31 59 ft / 18 m 3,941 ft / 1,201 m 295.26° 307.54° Asphalt 180 ft / 55 m 0 ft / 0 m

Map

Weather


0- 5 10 15 20 25 30 35+ Temperature / ° C

Clouds and Precipitation
Forecast for 2017-12-16 06:00 UTC. Updated an hour ago

Ground ~20,000 ft ~40,000 ft Winds

METAR

KMPO 160153Z AUTO 27016G20KT 10SM OVC007 M08/M09 A2977 RMK AO2 SLP116 T10831094

TAF

Not found

Frequencies

Recorded 120.27 MHz ASOS
Clearance 125.30 MHz CLNC DEL
Unicom 122.70 MHz CTAF/UNICOM
Approach 126.30 MHz WILKES BARRE APP/DEP
Warning: Do not use this data for real-world aviation or navigation. No guarantee of current accuracy is given.